Weather at Block Island State Airport

Public forecast

Using degrees Fahrenheit for public forecast. Weather courtesy of forecast.io.

Current aviation weather report (METAR) for Block Island State Airport

Retrieved 2020/11/25 03:56 UTC (28 minutes ago):

KBID 250356Z AUTO 03003KT 10SM CLR 03/M06 A3045 RMK AO2 SLP313 T00331056 400670022

Closest aviation forecast (TAF) to Block Island State Airport

Closest forecast is Groton New London Airport, 23.2 nm (43.0 km) WNW. Retrieved 2020-11-25 00:24 UTC (4 hours ago):

TAF KGON 242322Z 2500/2524 35005KT P6SM SCT250 FM250300 03005KT P6SM BKN250 FM250800 09007KT P6SM SCT040 BKN100 FM251300 15006KT P6SM BKN040 FM251700 19009KT P6SM BKN040